Time;durP1;ratioP1;P1;durP2;ratioP2;P2;SDS_P1;SDS_P2;PMS_P1;PMS_P2;Temp;Humidity;BMP_temperature;BMP_pressure;BME280_temperature;BME280_humidity;BME280_pressure;Samples;Min_cycle;Max_cycle;Signal;HPM_P1;HPM_P2
2021/03/14 07:54:34;;;;;;;16.70;4.82;;;4.70;99.90;;;;;;5062813;28;20700;-82
2021/03/14 07:57:01;;;;;;;18.95;5.30;;;4.70;99.90;;;;;;5073647;28;20052;-83
2021/03/14 07:59:29;;;;;;;7.85;4.00;;;4.70;99.90;;;;;;5070483;28;20398;-80
2021/03/14 08:02:18;;;;;;;14.65;3.63;;;4.70;99.90;;;;;;5071557;28;20120;-80
2021/03/14 08:04:52;;;;;;;15.63;4.82;;;4.70;99.90;;;;;;5071857;28;20096;-79
2021/03/14 08:07:32;;;;;;;16.35;4.93;;;4.80;99.90;;;;;;5072607;28;20063;-79
2021/03/14 08:10:09;;;;;;;15.55;4.57;;;4.80;99.90;;;;;;5071799;28;20020;-80
2021/03/14 08:12:35;;;;;;;12.40;4.15;;;4.90;99.90;;;;;;5065387;28;20036;-80
2021/03/14 08:15:01;;;;;;;11.68;3.92;;;5.00;99.90;;;;;;5063124;28;20090;-80
2021/03/14 08:17:36;;;;;;;19.70;4.18;;;5.10;99.90;;;;;;5071037;28;20017;-79
2021/03/14 08:20:02;;;;;;;11.27;3.25;;;5.20;99.90;;;;;;5071062;28;20066;-81
2021/03/14 08:22:43;;;;;;;10.43;4.25;;;5.30;99.90;;;;;;5070506;28;20016;-81
2021/03/14 08:25:26;;;;;;;8.50;3.60;;;5.40;99.90;;;;;;5070212;28;20021;-80
2021/03/14 08:27:58;;;;;;;12.85;4.75;;;5.40;99.90;;;;;;5060101;28;20025;-80
2021/03/14 08:30:30;;;;;;;13.55;3.40;;;5.40;99.90;;;;;;5057653;28;20493;-81
2021/03/14 08:33:17;;;;;;;11.68;4.13;;;5.50;99.90;;;;;;5062691;28;20063;-81
2021/03/14 08:35:48;;;;;;;13.02;4.47;;;5.60;99.90;;;;;;5064957;28;20228;-80
2021/03/14 08:38:43;;;;;;;20.02;5.30;;;5.70;99.90;;;;;;5052966;28;20375;-80
2021/03/14 08:41:23;;;;;;;20.00;4.63;;;5.80;99.90;;;;;;5068095;28;20407;-80
2021/03/14 08:43:55;;;;;;;9.10;3.13;;;5.90;99.90;;;;;;5066242;28;20029;-79
2021/03/14 08:46:41;;;;;;;11.88;3.35;;;5.90;99.90;;;;;;5067707;28;20035;-80
2021/03/14 08:49:08;;;;;;;12.95;4.03;;;5.90;99.90;;;;;;5067751;28;20441;-81
2021/03/14 08:51:34;;;;;;;11.88;3.03;;;6.00;99.90;;;;;;5069736;28;20048;-80
2021/03/14 08:54:00;;;;;;;11.10;3.03;;;6.10;99.90;;;;;;5069597;28;20021;-81
2021/03/14 08:56:25;;;;;;;9.20;3.55;;;6.20;99.90;;;;;;5070231;28;20525;-80
2021/03/14 08:59:08;;;;;;;13.93;4.05;;;6.50;99.90;;;;;;5061454;28;20021;-82
2021/03/14 09:01:34;;;;;;;9.88;3.35;;;6.80;99.90;;;;;;5066528;28;20025;-80
2021/03/14 09:04:14;;;;;;;7.68;2.65;;;6.80;99.90;;;;;;5066236;28;20074;-80
2021/03/14 09:06:40;;;;;;;12.13;3.50;;;6.80;99.90;;;;;;5044144;28;20036;-80
2021/03/14 09:09:09;;;;;;;15.88;3.08;;;6.80;99.90;;;;;;5056821;28;20029;-80
2021/03/14 09:11:43;;;;;;;8.10;2.13;;;6.90;99.90;;;;;;5059098;28;20091;-80
2021/03/14 09:14:21;;;;;;;6.32;2.80;;;6.90;99.90;;;;;;5051215;28;20124;-80
2021/03/14 09:16:46;;;;;;;9.27;2.88;;;7.10;99.90;;;;;;5040308;28;20021;-81
2021/03/14 09:19:32;;;;;;;9.02;2.75;;;7.20;99.90;;;;;;5048434;28;20021;-80
2021/03/14 09:21:59;;;;;;;9.90;2.97;;;7.30;99.90;;;;;;5056971;28;20539;-81
2021/03/14 09:24:28;;;;;;;8.30;2.65;;;7.20;99.90;;;;;;5043935;28;20083;-80
2021/03/14 09:26:56;;;;;;;6.80;2.35;;;7.10;99.90;;;;;;5056692;28;20036;-81
2021/03/14 09:29:40;;;;;;;12.80;2.38;;;7.20;99.90;;;;;;5054654;28;20025;-80
2021/03/14 09:32:31;;;;;;;8.63;2.08;;;7.20;99.90;;;;;;5056675;28;20663;-80
2021/03/14 09:35:25;;;;;;;10.73;2.50;;;7.20;99.90;;;;;;5046964;28;20021;-80
2021/03/14 09:37:56;;;;;;;7.28;1.58;;;7.20;99.90;;;;;;5054507;28;20028;-81
2021/03/14 09:40:29;;;;;;;6.72;1.83;;;7.30;99.90;;;;;;5042615;28;20108;-79
2021/03/14 09:43:18;;;;;;;9.45;1.98;;;7.20;99.90;;;;;;5057548;28;20083;-79
2021/03/14 09:45:48;;;;;;;9.75;1.65;;;7.20;99.90;;;;;;5047853;28;20132;-80
2021/03/14 09:48:20;;;;;;;7.60;2.38;;;7.20;99.90;;;;;;5045550;28;20187;-80
2021/03/14 09:50:57;;;;;;;5.15;1.98;;;7.20;99.90;;;;;;5060836;28;20033;-80
2021/03/14 09:53:27;;;;;;;8.05;2.25;;;7.30;99.90;;;;;;5058425;28;20040;-81
2021/03/14 09:55:58;;;;;;;8.48;1.67;;;7.30;99.90;;;;;;5061154;28;20447;-80
2021/03/14 09:58:25;;;;;;;4.80;1.38;;;7.30;99.90;;;;;;5057798;28;20272;-79
2021/03/14 10:00:52;;;;;;;14.13;2.88;;;7.20;99.90;;;;;;5059341;28;20108;-80
2021/03/14 10:03:22;;;;;;;9.43;1.90;;;7.20;99.90;;;;;;5060095;28;20025;-83
2021/03/14 10:05:58;;;;;;;7.57;2.33;;;7.20;99.90;;;;;;5054233;28;20021;-81
2021/03/14 10:08:33;;;;;;;;;;;7.20;99.90;;;;;;5074804;28;20053;-80
2021/03/14 10:11:05;;;;;;;5.55;2.22;;;7.30;99.90;;;;;;5054786;28;19935;-81
2021/03/14 10:13:32;;;;;;;15.95;3.08;;;7.30;99.90;;;;;;5056711;28;20048;-82
2021/03/14 10:15:59;;;;;;;6.38;1.60;;;7.40;99.90;;;;;;5048914;28;20018;-80
2021/03/14 10:18:27;;;;;;;8.75;1.98;;;7.40;99.90;;;;;;5047518;28;20017;-80
2021/03/14 10:21:25;;;;;;;9.65;2.50;;;7.30;99.90;;;;;;5051793;28;20013;-80
2021/03/14 10:23:51;;;;;;;12.57;2.47;;;7.30;99.90;;;;;;5047698;28;20035;-79
2021/03/14 10:26:19;;;;;;;9.45;2.00;;;7.50;99.90;;;;;;5056929;28;20024;-80
2021/03/14 10:28:47;;;;;;;13.32;2.97;;;7.60;99.90;;;;;;5051329;28;20031;-81
2021/03/14 10:31:14;;;;;;;8.02;1.75;;;7.80;99.90;;;;;;5049789;28;20088;-81
2021/03/14 10:33:42;;;;;;;4.22;1.42;;;7.80;99.90;;;;;;5052695;28;20013;-81
2021/03/14 10:36:16;;;;;;;9.50;1.67;;;7.80;99.90;;;;;;5056191;28;20096;-80
2021/03/14 10:38:42;;;;;;;4.85;1.90;;;7.80;99.90;;;;;;5048797;28;20036;-81
2021/03/14 10:41:16;;;;;;;9.13;2.45;;;7.70;99.90;;;;;;5058289;28;20024;-80
2021/03/14 10:44:01;;;;;;;11.15;2.05;;;7.80;99.90;;;;;;5047490;28;20021;-80
2021/03/14 10:46:37;;;;;;;10.10;1.50;;;7.80;99.90;;;;;;5057940;28;20024;-80
2021/03/14 10:49:14;;;;;;;10.77;2.47;;;7.90;99.90;;;;;;5059951;28;20305;-80
2021/03/14 10:51:43;;;;;;;7.20;1.85;;;8.00;99.90;;;;;;5057988;28;20080;-80
2021/03/14 10:54:11;;;;;;;6.15;1.25;;;7.90;99.90;;;;;;5052563;28;20026;-81
2021/03/14 10:56:39;;;;;;;5.55;0.88;;;7.50;99.90;;;;;;5058753;28;20025;-79
2021/03/14 10:59:06;;;;;;;7.78;1.27;;;7.30;99.90;;;;;;5063518;28;20025;-80
2021/03/14 11:01:41;;;;;;;2.20;0.95;;;7.10;99.90;;;;;;5051013;28;20044;-79
2021/03/14 11:04:07;;;;;;;5.55;1.88;;;6.90;99.90;;;;;;5047651;28;20022;-80
2021/03/14 11:06:34;;;;;;;7.93;1.45;;;6.90;99.90;;;;;;5040139;28;20030;-80
2021/03/14 11:09:09;;;;;;;2.28;0.90;;;7.00;99.90;;;;;;5052572;28;20051;-80
2021/03/14 11:11:48;;;;;;;5.72;1.50;;;7.10;99.90;;;;;;5048527;28;20025;-81
2021/03/14 11:14:35;;;;;;;5.97;1.30;;;7.40;99.90;;;;;;5043216;28;20032;-79
2021/03/14 11:17:02;;;;;;;2.35;1.08;;;7.80;99.90;;;;;;5043125;28;20047;-80
2021/03/14 11:19:28;;;;;;;5.10;2.10;;;8.20;99.90;;;;;;5055739;28;20013;-81
2021/03/14 11:21:53;;;;;;;3.85;1.48;;;8.50;99.90;;;;;;5041745;28;20033;-82
2021/03/14 11:24:19;;;;;;;8.30;1.77;;;8.80;99.90;;;;;;5040597;28;20064;-80
2021/03/14 11:26:44;;;;;;;8.07;2.50;;;8.80;99.90;;;;;;5042593;28;20030;-80
2021/03/14 11:29:10;;;;;;;10.88;1.77;;;8.60;99.90;;;;;;5039444;28;20040;-81
2021/03/14 11:31:36;;;;;;;10.60;2.03;;;8.60;99.90;;;;;;5035256;28;20027;-82
2021/03/14 11:34:01;;;;;;;11.63;2.22;;;8.70;99.90;;;;;;5047337;28;20119;-79
2021/03/14 11:36:28;;;;;;;8.05;1.90;;;8.70;99.90;;;;;;5048424;28;20009;-83
2021/03/14 11:38:53;;;;;;;5.97;1.70;;;8.80;99.90;;;;;;5044780;28;20111;-80
2021/03/14 11:41:19;;;;;;;3.83;1.45;;;8.70;99.90;;;;;;5055499;28;20067;-80
2021/03/14 11:43:44;;;;;;;9.40;1.95;;;8.80;99.90;;;;;;5055944;28;20032;-80
2021/03/14 11:46:10;;;;;;;6.85;1.85;;;8.80;99.90;;;;;;5055504;28;20587;-81
2021/03/14 11:48:35;;;;;;;5.40;1.80;;;8.90;99.90;;;;;;5058160;28;20048;-82
2021/03/14 11:51:01;;;;;;;5.63;1.65;;;8.80;99.90;;;;;;5057181;28;20033;-80
2021/03/14 11:53:27;;;;;;;7.30;1.83;;;8.80;99.90;;;;;;5054173;28;20033;-80
2021/03/14 11:55:52;;;;;;;9.40;1.80;;;8.70;99.90;;;;;;5048080;28;20504;-81
2021/03/14 11:58:19;;;;;;;13.10;2.67;;;8.90;99.90;;;;;;5050254;28;20029;-80
2021/03/14 12:00:45;;;;;;;10.55;2.28;;;9.00;99.90;;;;;;5055088;28;20025;-81
2021/03/14 12:03:10;;;;;;;3.97;1.63;;;9.00;99.90;;;;;;5053765;28;20021;-82
2021/03/14 12:05:36;;;;;;;6.18;2.13;;;8.80;99.90;;;;;;5054737;28;20059;-81
2021/03/14 12:08:02;;;;;;;8.32;1.90;;;8.60;99.90;;;;;;5054988;28;20710;-80
2021/03/14 12:10:28;;;;;;;9.82;2.13;;;8.40;99.90;;;;;;5057658;28;20100;-80
2021/03/14 12:12:53;;;;;;;7.55;1.92;;;8.30;99.90;;;;;;5058445;28;20036;-80
2021/03/14 12:15:19;;;;;;;12.27;2.05;;;8.40;99.90;;;;;;5050802;28;20555;-80
2021/03/14 12:17:45;;;;;;;6.90;1.65;;;8.60;99.90;;;;;;5051454;28;20328;-80
2021/03/14 12:20:11;;;;;;;8.27;1.70;;;8.80;99.90;;;;;;5038691;28;20113;-79
2021/03/14 12:22:36;;;;;;;11.88;2.15;;;8.90;99.90;;;;;;5049148;28;20021;-79
2021/03/14 12:25:04;;;;;;;10.75;1.95;;;8.90;99.90;;;;;;5051151;28;20055;-79
2021/03/14 12:27:30;;;;;;;5.68;1.65;;;8.90;99.90;;;;;;5051317;28;20025;-79
2021/03/14 12:29:55;;;;;;;8.13;2.05;;;8.80;99.90;;;;;;5037695;28;20044;-79
2021/03/14 12:32:21;;;;;;;2.22;1.15;;;8.70;99.90;;;;;;5034177;28;20700;-81
2021/03/14 12:34:46;;;;;;;5.18;1.48;;;8.80;99.90;;;;;;5032376;28;20124;-81
2021/03/14 12:37:12;;;;;;;6.50;1.60;;;8.90;99.90;;;;;;5049455;28;20025;-79
2021/03/14 12:39:37;;;;;;;5.40;1.98;;;9.00;99.90;;;;;;5052025;28;20491;-79
2021/03/14 12:42:03;;;;;;;4.25;1.83;;;9.10;99.90;;;;;;5043032;28;20528;-79
2021/03/14 12:44:29;;;;;;;5.60;1.77;;;9.10;99.90;;;;;;5053920;28;20036;-79
2021/03/14 12:46:54;;;;;;;9.00;2.17;;;9.10;99.90;;;;;;5054367;28;20045;-80
2021/03/14 12:49:20;;;;;;;6.70;1.58;;;9.30;99.90;;;;;;5055033;28;20075;-81
2021/03/14 12:51:46;;;;;;;8.20;2.25;;;9.30;99.90;;;;;;5055425;28;20025;-80
2021/03/14 12:54:11;;;;;;;8.23;1.38;;;9.30;99.90;;;;;;5054330;28;20033;-78
2021/03/14 12:56:37;;;;;;;7.30;1.70;;;9.00;99.90;;;;;;5066442;28;20029;-80
2021/03/14 12:59:02;;;;;;;8.93;1.33;;;8.80;99.90;;;;;;5072270;28;20025;-79
2021/03/14 13:01:28;;;;;;;4.75;1.70;;;8.60;99.90;;;;;;5068129;28;20029;-80
2021/03/14 13:03:54;;;;;;;7.53;1.73;;;8.40;99.90;;;;;;5065542;28;20028;-80
2021/03/14 13:06:20;;;;;;;8.07;2.28;;;8.50;99.90;;;;;;5064794;28;20028;-80
2021/03/14 13:08:45;;;;;;;4.35;1.98;;;8.60;99.90;;;;;;5064507;28;20033;-79
2021/03/14 13:11:11;;;;;;;7.60;1.50;;;8.70;99.90;;;;;;5063576;28;20036;-79
2021/03/14 13:13:36;;;;;;;4.50;1.45;;;8.70;99.90;;;;;;5065959;28;20036;-79
2021/03/14 13:16:02;;;;;;;6.93;2.45;;;8.50;99.90;;;;;;5064094;28;20027;-79
2021/03/14 13:18:28;;;;;;;9.70;2.05;;;8.40;99.90;;;;;;5061534;28;20029;-78
2021/03/14 13:20:54;;;;;;;10.68;1.52;;;8.30;99.90;;;;;;5056342;28;20017;-77
2021/03/14 13:23:20;;;;;;;7.85;1.38;;;8.20;99.90;;;;;;5049845;28;20029;-79
2021/03/14 13:25:46;;;;;;;4.60;1.20;;;8.10;99.90;;;;;;5046577;28;20059;-79
2021/03/14 13:28:16;;;;;;;4.18;1.35;;;8.10;99.90;;;;;;5048785;28;20037;-79
2021/03/14 13:30:42;;;;;;;8.10;1.63;;;8.10;99.90;;;;;;5051833;28;20096;-79
2021/03/14 13:33:08;;;;;;;8.45;2.00;;;8.20;99.90;;;;;;5051897;28;20226;-79
2021/03/14 13:35:33;;;;;;;5.28;1.75;;;8.20;99.90;;;;;;5052656;28;20013;-81
2021/03/14 13:37:59;;;;;;;10.07;1.88;;;8.30;99.90;;;;;;5052231;28;20116;-79
2021/03/14 13:40:26;;;;;;;5.47;1.35;;;8.40;99.90;;;;;;5041198;28;20064;-79
2021/03/14 13:42:52;;;;;;;4.65;1.67;;;8.50;99.90;;;;;;5045564;28;20039;-80
2021/03/14 13:45:18;;;;;;;4.60;1.52;;;8.60;99.90;;;;;;5051613;28;20104;-82
2021/03/14 13:47:44;;;;;;;6.10;1.20;;;8.80;99.90;;;;;;5046857;28;20519;-80
2021/03/14 13:50:10;;;;;;;8.90;1.45;;;8.70;99.90;;;;;;5051776;28;20029;-79
2021/03/14 13:52:36;;;;;;;3.83;0.90;;;8.60;99.90;;;;;;5052366;28;20066;-80
2021/03/14 13:55:02;;;;;;;7.28;1.42;;;8.50;99.90;;;;;;5050655;28;20100;-79
2021/03/14 13:57:28;;;;;;;5.95;1.67;;;8.50;99.90;;;;;;5051626;28;20021;-79
2021/03/14 13:59:54;;;;;;;4.35;1.13;;;8.70;99.90;;;;;;5049666;28;20098;-80
2021/03/14 14:02:19;;;;;;;5.13;1.40;;;8.80;99.90;;;;;;5045778;28;20026;-79
2021/03/14 14:04:45;;;;;;;5.07;1.13;;;8.90;99.90;;;;;;5044524;28;20123;-79
2021/03/14 14:07:10;;;;;;;4.47;1.15;;;8.90;99.90;;;;;;5050224;28;20029;-78
2021/03/14 14:09:36;;;;;;;4.13;1.00;;;8.80;99.90;;;;;;5042958;28;20028;-79
2021/03/14 14:12:02;;;;;;;5.35;1.27;;;8.80;99.90;;;;;;5052690;28;20088;-78
2021/03/14 14:14:27;;;;;;;4.93;1.17;;;8.80;99.90;;;;;;5054287;28;20033;-79
2021/03/14 14:16:53;;;;;;;3.13;1.40;;;8.90;99.90;;;;;;5057628;28;20047;-78
2021/03/14 14:19:18;;;;;;;10.65;1.20;;;8.90;99.90;;;;;;5054352;28;20025;-79
2021/03/14 14:21:44;;;;;;;4.38;1.25;;;8.90;99.90;;;;;;5043023;28;20026;-79
2021/03/14 14:24:10;;;;;;;6.60;1.05;;;8.90;99.90;;;;;;5051190;28;20111;-78
2021/03/14 14:26:35;;;;;;;3.60;1.25;;;8.90;99.90;;;;;;5052883;28;20043;-79
2021/03/14 14:29:01;;;;;;;3.50;1.33;;;8.90;99.90;;;;;;5053818;28;20025;-79
2021/03/14 14:31:27;;;;;;;5.85;0.88;;;8.90;99.90;;;;;;5053635;28;20368;-78
2021/03/14 14:33:52;;;;;;;3.85;0.98;;;8.90;99.90;;;;;;5052743;28;20092;-79
2021/03/14 14:36:18;;;;;;;7.25;1.05;;;8.90;99.90;;;;;;5052318;28;20024;-79
2021/03/14 14:38:44;;;;;;;6.32;2.53;;;8.90;99.90;;;;;;5051774;28;20036;-78
2021/03/14 14:41:10;;;;;;;6.00;1.30;;;9.00;99.90;;;;;;5054975;28;20028;-79
2021/03/14 14:43:36;;;;;;;5.63;1.02;;;9.00;99.90;;;;;;5054754;28;20029;-82
2021/03/14 14:46:02;;;;;;;6.03;1.35;;;9.10;99.90;;;;;;5055464;28;20055;-79
2021/03/14 14:48:27;;;;;;;3.40;1.38;;;9.10;99.90;;;;;;5054814;28;20032;-78
2021/03/14 14:50:53;;;;;;;3.97;1.35;;;9.10;99.90;;;;;;5054095;28;20025;-78
2021/03/14 14:53:18;;;;;;;1.95;0.70;;;8.90;99.90;;;;;;5053028;28;20031;-79
2021/03/14 14:55:44;;;;;;;6.13;1.13;;;8.80;99.90;;;;;;5055107;28;20017;-79
2021/03/14 14:58:12;;;;;;;7.53;1.60;;;8.70;99.90;;;;;;5054453;28;20039;-79
2021/03/14 15:00:37;;;;;;;4.18;1.10;;;8.60;99.90;;;;;;5055874;28;20028;-78
2021/03/14 15:03:03;;;;;;;8.27;1.85;;;8.50;99.90;;;;;;5057144;28;20431;-82
2021/03/14 15:05:29;;;;;;;4.00;1.42;;;8.40;99.90;;;;;;5053929;28;20035;-79
2021/03/14 15:07:54;;;;;;;5.55;1.08;;;8.50;99.90;;;;;;5045962;28;20059;-79
2021/03/14 15:10:21;;;;;;;5.43;1.92;;;8.60;99.90;;;;;;5056141;28;20075;-78
2021/03/14 15:12:46;;;;;;;5.68;1.20;;;8.80;99.90;;;;;;5057888;28;20056;-79
2021/03/14 15:15:18;;;;;;;7.90;1.63;;;8.90;99.90;;;;;;5055694;28;20377;-79
2021/03/14 15:17:44;;;;;;;4.10;1.38;;;8.90;99.90;;;;;;5058931;28;20021;-79
2021/03/14 15:20:10;;;;;;;6.20;1.50;;;9.00;99.90;;;;;;5057001;28;20035;-80
2021/03/14 15:22:36;;;;;;;10.50;1.90;;;9.10;99.90;;;;;;5052923;28;20157;-78
2021/03/14 15:25:05;;;;;;;3.80;1.30;;;9.10;99.90;;;;;;5043819;28;20053;-79
2021/03/14 15:27:31;;;;;;;7.65;1.90;;;9.10;99.90;;;;;;5056455;28;20067;-79
2021/03/14 15:29:56;;;;;;;5.85;2.17;;;9.10;99.90;;;;;;5045201;28;20738;-80
2021/03/14 15:32:22;;;;;;;6.72;1.85;;;9.00;99.90;;;;;;5052833;28;20026;-80
2021/03/14 15:34:47;;;;;;;7.38;1.60;;;9.00;99.90;;;;;;5046175;28;20025;-79
2021/03/14 15:37:13;;;;;;;6.25;1.50;;;9.10;99.90;;;;;;5047089;28;20508;-80
2021/03/14 15:39:39;;;;;;;5.07;1.42;;;9.10;99.90;;;;;;5057706;28;20529;-80
2021/03/14 15:42:04;;;;;;;5.18;1.85;;;9.10;99.90;;;;;;5060374;28;20066;-79
2021/03/14 15:44:30;;;;;;;6.80;1.30;;;9.10;99.90;;;;;;5062271;28;20049;-80
2021/03/14 15:46:55;;;;;;;2.70;1.10;;;9.10;99.90;;;;;;5068786;28;20501;-79
2021/03/14 15:49:21;;;;;;;6.43;1.40;;;9.00;99.90;;;;;;5060642;28;20071;-79
2021/03/14 15:51:47;;;;;;;8.07;1.00;;;9.00;99.90;;;;;;5061715;28;20063;-80
2021/03/14 15:54:12;;;;;;;4.95;0.90;;;8.90;99.40;;;;;;5058547;28;20112;-78
2021/03/14 15:56:38;;;;;;;3.72;1.35;;;8.80;99.10;;;;;;5049587;28;20025;-79
2021/03/14 15:59:04;;;;;;;9.27;1.27;;;8.70;99.40;;;;;;5056956;28;20028;-78
2021/03/14 16:01:29;;;;;;;7.28;3.63;;;8.60;99.90;;;;;;5055593;28;20103;-80
2021/03/14 16:03:55;;;;;;;7.95;4.40;;;8.50;99.90;;;;;;5054527;28;20533;-79
2021/03/14 16:06:20;;;;;;;8.13;2.70;;;8.50;99.90;;;;;;5054278;28;20028;-80
2021/03/14 16:08:46;;;;;;;8.77;1.88;;;8.50;99.90;;;;;;5050998;28;20502;-79
2021/03/14 16:11:14;;;;;;;5.30;1.88;;;8.40;99.90;;;;;;5050571;28;20063;-79
2021/03/14 16:13:40;;;;;;;8.32;1.83;;;8.30;99.90;;;;;;5049662;28;20029;-79
2021/03/14 16:16:06;;;;;;;7.35;1.95;;;8.30;99.90;;;;;;5054518;28;20663;-79
2021/03/14 16:18:32;;;;;;;9.02;1.48;;;8.20;99.90;;;;;;5054964;28;20480;-81
2021/03/14 16:20:57;;;;;;;7.93;1.70;;;8.20;99.90;;;;;;5054149;28;20032;-79
2021/03/14 16:23:23;;;;;;;6.57;1.52;;;8.10;99.90;;;;;;5054860;28;20033;-80
2021/03/14 16:25:49;;;;;;;6.53;1.23;;;8.00;99.90;;;;;;5043556;28;20039;-81
2021/03/14 16:28:14;;;;;;;4.95;1.27;;;7.90;99.90;;;;;;5047112;28;20052;-80
2021/03/14 16:30:40;;;;;;;8.02;1.77;;;7.80;99.90;;;;;;5052773;28;20114;-79
2021/03/14 16:33:06;;;;;;;5.40;1.75;;;7.70;99.90;;;;;;5044632;28;20048;-79
2021/03/14 16:35:32;;;;;;;6.00;1.45;;;7.70;99.90;;;;;;5039168;28;20025;-79
2021/03/14 16:37:58;;;;;;;9.32;1.20;;;7.60;99.90;;;;;;5039101;28;20025;-79
2021/03/14 16:40:24;;;;;;;7.35;1.67;;;7.50;99.90;;;;;;5041496;28;20111;-79
2021/03/14 16:42:52;;;;;;;11.15;1.98;;;7.50;99.90;;;;;;5044264;28;20061;-79
2021/03/14 16:45:21;;;;;;;6.55;1.88;;;7.40;99.90;;;;;;5044241;28;20033;-78
2021/03/14 16:47:48;;;;;;;7.55;1.67;;;7.30;99.90;;;;;;5047005;28;20047;-79
2021/03/14 16:50:14;;;;;;;6.57;1.92;;;7.10;99.90;;;;;;5053716;28;20054;-79
2021/03/14 16:52:40;;;;;;;7.22;2.33;;;7.00;99.90;;;;;;5048447;28;20086;-78
2021/03/14 16:55:06;;;;;;;10.55;3.08;;;7.00;99.90;;;;;;5040762;28;20446;-79
2021/03/14 16:57:32;;;;;;;7.53;1.80;;;6.90;99.90;;;;;;5047426;28;20082;-79
2021/03/14 16:59:58;;;;;;;8.73;2.25;;;6.80;99.90;;;;;;5049616;28;20021;-80
2021/03/14 17:02:23;;;;;;;11.23;2.95;;;6.70;99.90;;;;;;5053445;28;20025;-79
2021/03/14 17:04:49;;;;;;;9.85;2.00;;;6.70;99.90;;;;;;5052208;28;20021;-78
2021/03/14 17:07:15;;;;;;;8.35;1.80;;;6.60;99.90;;;;;;5048411;28;20036;-78
2021/03/14 17:09:40;;;;;;;7.57;2.38;;;6.60;99.90;;;;;;5050781;28;20044;-78
2021/03/14 17:12:06;;;;;;;5.82;2.10;;;6.60;99.90;;;;;;5054538;28;20096;-80
2021/03/14 17:14:32;;;;;;;8.35;1.73;;;6.60;99.90;;;;;;5054896;28;20036;-79
2021/03/14 17:16:58;;;;;;;7.18;2.08;;;6.60;99.90;;;;;;5054852;28;20025;-78
2021/03/14 17:19:24;;;;;;;8.85;3.03;;;6.50;99.90;;;;;;5045862;28;20075;-79
2021/03/14 17:21:49;;;;;;;6.05;2.42;;;6.50;99.90;;;;;;5043717;28;20018;-80
2021/03/14 17:24:16;;;;;;;13.85;1.95;;;6.50;99.90;;;;;;5037895;28;20032;-77
2021/03/14 17:26:42;;;;;;;7.50;1.92;;;6.50;99.90;;;;;;5054292;28;20037;-78
2021/03/14 17:29:08;;;;;;;10.48;2.00;;;6.50;99.90;;;;;;5053863;28;20119;-79
2021/03/14 17:31:33;;;;;;;6.97;3.17;;;6.50;99.90;;;;;;5054741;28;20142;-79
2021/03/14 17:34:20;;;;;;;14.43;2.10;;;6.40;99.90;;;;;;5053062;28;20487;-79
2021/03/14 17:36:46;;;;;;;;;;;6.40;99.90;;;;;;5031024;28;20060;-79
2021/03/14 17:39:12;;;;;;;9.63;2.10;;;6.30;99.90;;;;;;5046941;28;19905;-79
2021/03/14 17:41:37;;;;;;;9.05;2.30;;;6.30;99.90;;;;;;5051090;28;20021;-79
2021/03/14 17:44:03;;;;;;;12.43;2.17;;;6.20;99.90;;;;;;5054141;28;20021;-79
2021/03/14 17:46:30;;;;;;;5.80;1.52;;;6.20;99.90;;;;;;5039986;28;20036;-79
2021/03/14 17:48:56;;;;;;;11.18;2.35;;;6.20;99.90;;;;;;5055605;28;20446;-79
2021/03/14 17:51:22;;;;;;;17.45;5.30;;;6.10;99.90;;;;;;5045042;28;20112;-79
2021/03/14 17:53:48;;;;;;;8.32;2.33;;;6.10;99.90;;;;;;5043686;28;20045;-78
2021/03/14 17:56:14;;;;;;;10.85;1.73;;;6.00;99.90;;;;;;5035113;28;20057;-78
2021/03/14 17:58:40;;;;;;;13.70;2.47;;;6.00;99.90;;;;;;5037445;28;20027;-79
2021/03/14 18:01:05;;;;;;;8.23;2.63;;;5.90;99.90;;;;;;5039739;28;20109;-79
2021/03/14 18:03:31;;;;;;;9.20;1.70;;;5.80;99.90;;;;;;5049239;28;20025;-79
2021/03/14 18:05:56;;;;;;;6.30;1.70;;;5.80;99.90;;;;;;5048474;28;20029;-79
2021/03/14 18:08:22;;;;;;;9.95;2.90;;;5.80;99.90;;;;;;5036327;28;20055;-80
2021/03/14 18:10:48;;;;;;;14.70;3.83;;;5.70;99.90;;;;;;5052859;28;20501;-80
2021/03/14 18:13:14;;;;;;;8.25;1.65;;;5.70;99.90;;;;;;5037056;28;20040;-79
2021/03/14 18:15:39;;;;;;;9.80;2.10;;;5.60;99.90;;;;;;5040858;28;20128;-79
2021/03/14 18:18:05;;;;;;;8.73;1.83;;;5.60;99.90;;;;;;5052318;28;20128;-79
2021/03/14 18:20:30;;;;;;;6.38;2.22;;;5.60;99.90;;;;;;5037150;28;20392;-79
2021/03/14 18:22:56;;;;;;;10.40;3.35;;;5.60;99.90;;;;;;5042214;28;20031;-79
2021/03/14 18:25:22;;;;;;;9.35;2.80;;;5.60;99.90;;;;;;5053331;28;20566;-79
2021/03/14 18:27:50;;;;;;;11.70;2.58;;;5.60;99.90;;;;;;5041037;28;20033;-79
2021/03/14 18:30:19;;;;;;;9.05;2.75;;;5.60;99.90;;;;;;5034441;28;20040;-80
2021/03/14 18:32:46;;;;;;;10.18;3.28;;;5.60;99.90;;;;;;5063038;28;20013;-79
2021/03/14 18:35:13;;;;;;;9.10;2.65;;;5.60;99.90;;;;;;5055384;28;20040;-81
2021/03/14 18:40:11;;;;;;;13.10;3.00;;;5.60;99.90;;;;;;4987497;28;20420;-53
2021/03/14 18:42:37;;;;;;;14.57;3.92;;;5.60;99.90;;;;;;4991000;28;20078;-52
2021/03/14 18:45:05;;;;;;;13.68;2.83;;;5.50;99.90;;;;;;4979047;28;20483;-55
2021/03/14 18:47:31;;;;;;;9.27;2.83;;;5.50;99.90;;;;;;4975784;28;20109;-52
2021/03/14 18:49:56;;;;;;;13.57;3.30;;;5.50;99.90;;;;;;4959882;28;20714;-51
2021/03/14 18:52:22;;;;;;;9.40;2.50;;;5.40;99.90;;;;;;5003541;22;20042;-50
2021/03/14 18:54:47;;;;;;;10.07;4.10;;;5.40;99.90;;;;;;5006984;28;20112;-50
2021/03/14 18:57:13;;;;;;;20.63;7.30;;;5.40;99.90;;;;;;5008485;28;20503;-47
2021/03/14 18:59:39;;;;;;;47.53;18.50;;;5.40;99.90;;;;;;5009369;28;20026;-46
2021/03/14 19:02:08;;;;;;;42.50;21.38;;;5.40;99.90;;;;;;5009437;28;20025;-45
2021/03/14 19:04:34;;;;;;;23.02;10.13;;;5.40;99.90;;;;;;5003654;28;20061;-47
2021/03/14 19:07:00;;;;;;;19.38;7.75;;;5.40;99.90;;;;;;5001876;28;20026;-46
2021/03/14 19:09:26;;;;;;;18.60;8.15;;;5.40;99.90;;;;;;4996923;28;20116;-48
2021/03/14 19:11:51;;;;;;;36.53;20.35;;;5.40;99.90;;;;;;4995370;28;20041;-47
2021/03/14 19:14:17;;;;;;;35.83;15.30;;;5.40;99.90;;;;;;4992990;28;20068;-47
2021/03/14 19:16:43;;;;;;;25.63;9.55;;;5.40;99.90;;;;;;4995426;28;20030;-48
2021/03/14 19:19:08;;;;;;;92.25;41.25;;;5.40;99.90;;;;;;5004290;28;20018;-46
2021/03/14 19:21:34;;;;;;;23.98;8.32;;;5.40;99.90;;;;;;5008224;28;20092;-46
2021/03/14 19:24:00;;;;;;;18.30;7.22;;;5.40;99.90;;;;;;5005537;28;20022;-48
2021/03/14 19:26:25;;;;;;;13.02;5.40;;;5.40;99.90;;;;;;5008166;28;20022;-47
2021/03/14 19:28:51;;;;;;;18.85;5.55;;;5.40;99.90;;;;;;5008414;28;20036;-49
2021/03/14 19:31:17;;;;;;;8.93;4.05;;;5.40;99.90;;;;;;5006572;28;20037;-49
2021/03/14 19:33:42;;;;;;;19.35;4.60;;;5.40;99.90;;;;;;5007378;28;20082;-46
2021/03/14 19:36:08;;;;;;;14.73;4.03;;;5.40;99.90;;;;;;5006995;28;20084;-47
2021/03/14 19:38:34;;;;;;;22.00;3.70;;;5.40;99.90;;;;;;5006500;28;20022;-46
2021/03/14 19:40:59;;;;;;;16.35;3.88;;;5.40;99.90;;;;;;5007026;28;20041;-50
2021/03/14 19:43:25;;;;;;;16.23;3.45;;;5.30;99.90;;;;;;5006519;28;20469;-46
2021/03/14 19:45:51;;;;;;;11.30;3.67;;;5.30;99.90;;;;;;5007115;28;20030;-47
2021/03/14 19:48:16;;;;;;;14.13;3.25;;;5.30;99.90;;;;;;5006487;28;20030;-50
2021/03/14 19:50:42;;;;;;;13.10;3.22;;;5.30;99.90;;;;;;5006939;28;20026;-48
2021/03/14 19:53:07;;;;;;;10.18;3.70;;;5.30;99.90;;;;;;5006667;28;20065;-46
2021/03/14 19:55:33;;;;;;;13.05;3.20;;;5.30;99.90;;;;;;5007008;28;20053;-46
2021/03/14 19:57:58;;;;;;;12.32;2.83;;;5.30;99.90;;;;;;5007017;28;20701;-46
2021/03/14 20:00:25;;;;;;;9.05;2.83;;;5.30;99.90;;;;;;5000780;28;20010;-46
2021/03/14 20:02:51;;;;;;;14.70;2.88;;;5.30;99.90;;;;;;5006757;28;20095;-47
2021/03/14 20:05:18;;;;;;;11.77;3.75;;;5.30;99.90;;;;;;5006327;28;20164;-46
2021/03/14 20:07:44;;;;;;;12.48;3.72;;;5.30;99.90;;;;;;5006421;28;20045;-45
2021/03/14 20:10:09;;;;;;;24.42;4.45;;;5.30;99.90;;;;;;5005004;28;20034;-49
2021/03/14 20:12:35;;;;;;;14.55;2.47;;;5.30;99.90;;;;;;5006310;28;20119;-51
2021/03/14 20:15:00;;;;;;;18.17;2.88;;;5.30;99.90;;;;;;5005715;28;20038;-48
2021/03/14 20:17:26;;;;;;;14.90;2.65;;;5.30;99.90;;;;;;5005417;28;20033;-50
2021/03/14 20:19:52;;;;;;;10.38;3.08;;;5.30;99.90;;;;;;5006883;28;20029;-46
2021/03/14 20:22:17;;;;;;;22.33;3.75;;;5.30;99.90;;;;;;5006151;28;20102;-50
2021/03/14 20:24:43;;;;;;;8.50;2.88;;;5.30;99.90;;;;;;5005698;28;20117;-50
2021/03/14 20:27:12;;;;;;;22.88;3.72;;;5.30;99.90;;;;;;5006158;28;20038;-51
2021/03/14 20:29:37;;;;;;;14.05;2.97;;;5.30;99.90;;;;;;5006798;28;20479;-46
2021/03/14 20:32:03;;;;;;;16.33;3.03;;;5.30;99.90;;;;;;5006882;28;20080;-48
2021/03/14 20:34:29;;;;;;;16.58;3.35;;;5.30;99.90;;;;;;5005824;28;20026;-49
2021/03/14 20:36:55;;;;;;;17.88;4.53;;;5.30;99.90;;;;;;5006429;28;20102;-47
2021/03/14 20:39:22;;;;;;;12.70;3.03;;;5.30;99.90;;;;;;5006158;28;20018;-48
2021/03/14 20:41:48;;;;;;;13.70;3.30;;;5.30;99.90;;;;;;5005959;28;20089;-47
2021/03/14 20:44:14;;;;;;;15.10;4.18;;;5.30;99.90;;;;;;5005844;28;20033;-47
2021/03/14 20:46:40;;;;;;;17.05;4.38;;;5.30;99.90;;;;;;5006619;28;20036;-49
2021/03/14 20:49:05;;;;;;;11.75;3.35;;;5.30;99.90;;;;;;5005498;28;20026;-50
2021/03/14 20:51:31;;;;;;;16.92;3.58;;;5.30;99.90;;;;;;4997815;28;20632;-48